BAW292 EDDL-EHRD
Flight info
| Callsign | BAW292 |
|---|---|
| Flight time | N/A |
| Altitude | 18000 |
| Route | SONEB8T/23L SONEB |
| Aircraft | B738/M-SDE2E3FGHIRWXY/LB1 |
Departure
| Time | 2026-05-05 12:01 |
|---|---|
| Airport | Düsseldorf Airport (EDDL) |
Arrival
| Time | N/A |
|---|---|
| Airport | Rotterdam The Hague Airport (EHRD) |
| Time | Latitude | Longitude | Altitude | Speed | Heading |
|---|---|---|---|---|---|
| 2026-05-05 11:31 | 51.28746 | 6.77604 | 132 ft | 0 kts | 323° |
| 2026-05-05 11:46 | 51.28744 | 6.77606 | 132 ft | 2 kts | 323° |
| 2026-05-05 11:46 | 51.28731 | 6.77622 | 131 ft | 2 kts | 323° |
| 2026-05-05 11:46 | 51.28718 | 6.77638 | 131 ft | 2 kts | 323° |
| 2026-05-05 11:47 | 51.28709 | 6.77649 | 131 ft | 1 kts | 323° |
| 2026-05-05 11:47 | 51.28705 | 6.77653 | 131 ft | 0 kts | 323° |
| 2026-05-05 11:47 | 51.28701 | 6.77659 | 131 ft | 1 kts | 323° |
| 2026-05-05 11:47 | 51.28696 | 6.77665 | 131 ft | 1 kts | 323° |
| 2026-05-05 11:48 | 51.28688 | 6.77673 | 131 ft | 1 kts | 323° |
| 2026-05-05 11:48 | 51.28684 | 6.77678 | 131 ft | 1 kts | 324° |
| 2026-05-05 11:48 | 51.28680 | 6.77684 | 132 ft | 1 kts | 324° |
| 2026-05-05 11:49 | 51.28675 | 6.77689 | 132 ft | 1 kts | 324° |
| 2026-05-05 11:49 | 51.28670 | 6.77695 | 132 ft | 1 kts | 324° |
| 2026-05-05 11:49 | 51.28665 | 6.77700 | 132 ft | 1 kts | 324° |
| 2026-05-05 11:49 | 51.28661 | 6.77706 | 132 ft | 1 kts | 324° |
| 2026-05-05 11:50 | 51.28656 | 6.77711 | 133 ft | 1 kts | 323° |
| 2026-05-05 11:50 | 51.28651 | 6.77717 | 133 ft | 1 kts | 323° |
| 2026-05-05 11:50 | 51.28649 | 6.77720 | 133 ft | 0 kts | 323° |
| 2026-05-05 11:50 | 51.28654 | 6.77714 | 133 ft | 0 kts | 324° |
| 2026-05-05 11:51 | 51.28657 | 6.77715 | 133 ft | 0 kts | 358° |
| 2026-05-05 11:51 | 51.28659 | 6.77719 | 133 ft | 0 kts | 33° |
| 2026-05-05 11:51 | 51.28659 | 6.77721 | 133 ft | 0 kts | 44° |
| 2026-05-05 11:53 | 51.28660 | 6.77723 | 133 ft | 1 kts | 45° |
| 2026-05-05 11:54 | 51.28669 | 6.77740 | 132 ft | 3 kts | 51° |
| 2026-05-05 11:54 | 51.28687 | 6.77777 | 133 ft | 5 kts | 52° |
| 2026-05-05 11:54 | 51.28710 | 6.77825 | 133 ft | 6 kts | 53° |
| 2026-05-05 11:54 | 51.28735 | 6.77872 | 135 ft | 6 kts | 44° |
| 2026-05-05 11:55 | 51.28770 | 6.77880 | 135 ft | 5 kts | 334° |
| 2026-05-05 11:55 | 51.28794 | 6.77834 | 137 ft | 5 kts | 309° |
| 2026-05-05 11:55 | 51.28821 | 6.77793 | 140 ft | 5 kts | 320° |
| 2026-05-05 11:55 | 51.28850 | 6.77757 | 140 ft | 5 kts | 322° |
| 2026-05-05 11:56 | 51.28881 | 6.77721 | 140 ft | 6 kts | 327° |
| 2026-05-05 11:56 | 51.28919 | 6.77709 | 141 ft | 6 kts | 11° |
| 2026-05-05 11:56 | 51.28949 | 6.77747 | 141 ft | 6 kts | 50° |
| 2026-05-05 11:56 | 51.28974 | 6.77795 | 141 ft | 6 kts | 49° |
| 2026-05-05 11:57 | 51.28999 | 6.77842 | 141 ft | 6 kts | 51° |
| 2026-05-05 11:57 | 51.29023 | 6.77890 | 143 ft | 5 kts | 53° |
| 2026-05-05 11:57 | 51.29045 | 6.77938 | 144 ft | 6 kts | 53° |
| 2026-05-05 11:57 | 51.29075 | 6.78001 | 142 ft | 9 kts | 52° |
| 2026-05-05 11:58 | 51.29121 | 6.78095 | 142 ft | 11 kts | 52° |
| 2026-05-05 11:58 | 51.29167 | 6.78194 | 144 ft | 11 kts | 53° |
| 2026-05-05 11:58 | 51.29215 | 6.78299 | 143 ft | 13 kts | 53° |
| 2026-05-05 11:58 | 51.29273 | 6.78421 | 143 ft | 14 kts | 52° |
| 2026-05-05 11:59 | 51.29332 | 6.78536 | 143 ft | 13 kts | 41° |
| 2026-05-05 11:59 | 51.29416 | 6.78571 | 145 ft | 13 kts | 0° |
| 2026-05-05 11:59 | 51.29493 | 6.78518 | 148 ft | 12 kts | 310° |
| 2026-05-05 11:59 | 51.29495 | 6.78404 | 147 ft | 3 kts | 231° |
| 2026-05-05 12:00 | 51.29486 | 6.78390 | 147 ft | 0 kts | 226° |
| 2026-05-05 12:00 | 51.29478 | 6.78377 | 147 ft | 9 kts | 226° |
| 2026-05-05 12:00 | 51.29379 | 6.78189 | 146 ft | 45 kts | 232° |
| 2026-05-05 12:01 | 51.29003 | 6.77385 | 139 ft | 134 kts | 231° |
| 2026-05-05 12:01 | 51.28312 | 6.75933 | 415 ft | 183 kts | 233° |
| 2026-05-05 12:01 | 51.27590 | 6.74310 | 1710 ft | 172 kts | 234° |
| 2026-05-05 12:01 | 51.26906 | 6.72684 | 2715 ft | 185 kts | 251° |
| 2026-05-05 12:02 | 51.26939 | 6.70638 | 3562 ft | 191 kts | 295° |
| 2026-05-05 12:02 | 51.27883 | 6.69153 | 4389 ft | 197 kts | 331° |
| 2026-05-05 12:02 | 51.29214 | 6.68529 | 4850 ft | 207 kts | 359° |
| 2026-05-05 12:02 | 51.30718 | 6.68657 | 5126 ft | 234 kts | 4° |
| 2026-05-05 12:03 | 51.32412 | 6.68863 | 5116 ft | 260 kts | 4° |
| 2026-05-05 12:03 | 51.34281 | 6.69082 | 5122 ft | 269 kts | 4° |
| 2026-05-05 12:03 | 51.36130 | 6.69288 | 5136 ft | 271 kts | 3° |
| 2026-05-05 12:03 | 51.38043 | 6.69491 | 5320 ft | 273 kts | 3° |
| 2026-05-05 12:04 | 51.39944 | 6.69632 | 6200 ft | 274 kts | 0° |
| 2026-05-05 12:04 | 51.41853 | 6.69644 | 7241 ft | 275 kts | 359° |
| 2026-05-05 12:04 | 51.43748 | 6.69630 | 8153 ft | 278 kts | 359° |
| 2026-05-05 12:04 | 51.45707 | 6.69615 | 9043 ft | 283 kts | 359° |
| 2026-05-05 12:05 | 51.47687 | 6.69607 | 9920 ft | 286 kts | 359° |
| 2026-05-05 12:05 | 51.49713 | 6.69604 | 10577 ft | 300 kts | 359° |
| 2026-05-05 12:05 | 51.51895 | 6.69603 | 10784 ft | 327 kts | 359° |
| 2026-05-05 12:05 | 51.54261 | 6.69607 | 10984 ft | 352 kts | 360° |
| 2026-05-05 12:06 | 51.56764 | 6.69613 | 11502 ft | 364 kts | 360° |
| 2026-05-05 12:06 | 51.59308 | 6.69621 | 12239 ft | 369 kts | 360° |
| 2026-05-05 12:06 | 51.61888 | 6.69633 | 13041 ft | 371 kts | 0° |
| 2026-05-05 12:06 | 51.64485 | 6.69872 | 13784 ft | 375 kts | 5° |
| 2026-05-05 12:07 | 51.67100 | 6.70318 | 14489 ft | 380 kts | 6° |
| 2026-05-05 12:07 | 51.69728 | 6.70819 | 15187 ft | 384 kts | 6° |
| 2026-05-05 12:07 | 51.72405 | 6.71322 | 15811 ft | 389 kts | 6° |
| 2026-05-05 12:07 | 51.75093 | 6.71806 | 15983 ft | 392 kts | 6° |
| 2026-05-05 12:08 | 51.77868 | 6.72284 | 16009 ft | 409 kts | 6° |
| 2026-05-05 12:08 | 51.80725 | 6.72766 | 16011 ft | 417 kts | 6° |
| 2026-05-05 12:08 | 51.83620 | 6.73251 | 16001 ft | 417 kts | 6° |
| 2026-05-05 12:08 | 51.86509 | 6.73736 | 15997 ft | 416 kts | 6° |
| 2026-05-05 12:09 | 51.89357 | 6.74212 | 16000 ft | 416 kts | 5° |
| 2026-05-05 12:09 | 51.92303 | 6.74705 | 16002 ft | 416 kts | 5° |
| 2026-05-05 12:09 | 51.95170 | 6.75184 | 16001 ft | 416 kts | 6° |
| 2026-05-05 12:09 | 51.98060 | 6.75618 | 15995 ft | 416 kts | 1° |
| 2026-05-05 12:10 | 52.00909 | 6.74948 | 16003 ft | 415 kts | 341° |
| 2026-05-05 12:10 | 52.03460 | 6.72806 | 16014 ft | 415 kts | 324° |
| 2026-05-05 12:10 | 52.05532 | 6.69563 | 16004 ft | 414 kts | 307° |
| 2026-05-05 12:10 | 52.07211 | 6.65768 | 16005 ft | 415 kts | 304° |
| 2026-05-05 12:11 | 52.08828 | 6.61942 | 15987 ft | 402 kts | 304° |
| 2026-05-05 12:11 | 52.10378 | 6.58255 | 15984 ft | 387 kts | 304° |
| 2026-05-05 12:11 | 52.11864 | 6.54747 | 15992 ft | 383 kts | 304° |
| 2026-05-05 12:11 | 52.13396 | 6.51162 | 16003 ft | 384 kts | 304° |
| 2026-05-05 12:12 | 52.14952 | 6.47544 | 15686 ft | 386 kts | 305° |
| 2026-05-05 12:12 | 52.16461 | 6.44044 | 15225 ft | 382 kts | 305° |
| 2026-05-05 12:12 | 52.18005 | 6.40466 | 14712 ft | 378 kts | 305° |
| 2026-05-05 12:12 | 52.19507 | 6.36980 | 14172 ft | 374 kts | 305° |
| 2026-05-05 12:13 | 52.20993 | 6.33531 | 13634 ft | 370 kts | 305° |
| 2026-05-05 12:13 | 52.22447 | 6.30148 | 13108 ft | 367 kts | 304° |
| 2026-05-05 12:13 | 52.23904 | 6.26753 | 12570 ft | 364 kts | 304° |
| 2026-05-05 12:13 | 52.24795 | 6.24488 | 12211 ft | 362 kts | 297° |
| 2026-05-05 12:14 | 52.26024 | 6.19328 | 11512 ft | 358 kts | 289° |
| 2026-05-05 12:14 | 52.26805 | 6.15552 | 11000 ft | 355 kts | 288° |
| 2026-05-05 12:14 | 52.27588 | 6.11752 | 10830 ft | 342 kts | 288° |
| 2026-05-05 12:14 | 52.28346 | 6.08117 | 10665 ft | 330 kts | 289° |
| 2026-05-05 12:15 | 52.29092 | 6.04584 | 10526 ft | 319 kts | 289° |
| 2026-05-05 12:15 | 52.29797 | 6.01271 | 10389 ft | 309 kts | 289° |
| 2026-05-05 12:15 | 52.30492 | 5.98018 | 10263 ft | 299 kts | 289° |
| 2026-05-05 12:15 | 52.31138 | 5.94997 | 10138 ft | 290 kts | 289° |
| 2026-05-05 12:16 | 52.31788 | 5.91959 | 10026 ft | 281 kts | 289° |
| 2026-05-05 12:16 | 52.32391 | 5.89145 | 9819 ft | 278 kts | 289° |
| 2026-05-05 12:16 | 52.33038 | 5.86117 | 9521 ft | 277 kts | 289° |
| 2026-05-05 12:16 | 52.33666 | 5.83171 | 9238 ft | 275 kts | 289° |
| 2026-05-05 12:17 | 52.34279 | 5.80298 | 8968 ft | 274 kts | 289° |
| 2026-05-05 12:17 | 52.34919 | 5.77290 | 8672 ft | 272 kts | 289° |
| 2026-05-05 12:17 | 52.35540 | 5.74368 | 8392 ft | 271 kts | 289° |
| 2026-05-05 12:17 | 52.36159 | 5.71456 | 8101 ft | 270 kts | 289° |
| 2026-05-05 12:18 | 52.36766 | 5.68595 | 7808 ft | 270 kts | 289° |
| 2026-05-05 12:18 | 52.37389 | 5.65650 | 7518 ft | 268 kts | 289° |
| 2026-05-05 12:18 | 52.37998 | 5.62768 | 7236 ft | 267 kts | 289° |
| 2026-05-05 12:18 | 52.38446 | 5.59856 | 7002 ft | 263 kts | 271° |
| 2026-05-05 12:19 | 52.38357 | 5.57863 | 7016 ft | 257 kts | 262° |